Bangor, Wisconsin
Current Conditions -  °F | °C
As of 7:53 AM on Thursday 27 Nov 2014 (Local Time) from KLSE Reporting Station
Clear Clear  
Wind Chill: -7°   Ceiling: Unl
Heat Index:   Visibility: 10mi
Dew Point: -1°   Wind: 12mph
Humidity: 67%   Direction: 340°NNW
Pressure: 30.45"   Gusts: NA
Location:  43.89°N, 90.99°W
Report Text: KLSE 271353Z 34010KT 10SM CLR M13/M18 A3045 RMK AO2 SLP334 T11331183
Loading
Personal Weather Stations






























Interactive Weather Map New forecast layout! Learn more

10-Day Weather Forecast

Advertisements
Track Severe Weather on mobile